sensor_id;sensor_type;location;lat;lon;timestamp;P1;durP1;ratioP1;P2;durP2;ratioP2
23676;SDS011;31493;49.058;12.190;2023-08-24T00:01:43;5.57;;;3.00;;
23676;SDS011;31493;49.058;12.190;2023-08-24T00:04:10;5.07;;;3.22;;
23676;SDS011;31493;49.058;12.190;2023-08-24T00:06:37;7.05;;;2.95;;
23676;SDS011;31493;49.058;12.190;2023-08-24T00:09:04;4.93;;;2.95;;
23676;SDS011;31493;49.058;12.190;2023-08-24T00:11:31;8.13;;;3.20;;
23676;SDS011;31493;49.058;12.190;2023-08-24T00:13:58;5.82;;;3.03;;
23676;SDS011;31493;49.058;12.190;2023-08-24T00:16:26;6.20;;;3.10;;
23676;SDS011;31493;49.058;12.190;2023-08-24T00:18:54;7.55;;;2.90;;
23676;SDS011;31493;49.058;12.190;2023-08-24T00:21:21;4.45;;;3.00;;
23676;SDS011;31493;49.058;12.190;2023-08-24T00:23:49;6.43;;;3.13;;
23676;SDS011;31493;49.058;12.190;2023-08-24T00:26:17;3.47;;;2.80;;
23676;SDS011;31493;49.058;12.190;2023-08-24T00:28:44;7.43;;;2.95;;
23676;SDS011;31493;49.058;12.190;2023-08-24T00:31:11;7.13;;;3.03;;
23676;SDS011;31493;49.058;12.190;2023-08-24T00:33:39;8.18;;;3.13;;
23676;SDS011;31493;49.058;12.190;2023-08-24T00:36:06;6.90;;;3.22;;
23676;SDS011;31493;49.058;12.190;2023-08-24T00:38:33;5.68;;;3.20;;
23676;SDS011;31493;49.058;12.190;2023-08-24T00:41:00;4.93;;;2.88;;
23676;SDS011;31493;49.058;12.190;2023-08-24T00:43:28;4.68;;;3.25;;
23676;SDS011;31493;49.058;12.190;2023-08-24T00:45:55;7.40;;;2.92;;
23676;SDS011;31493;49.058;12.190;2023-08-24T00:48:25;6.97;;;2.78;;
23676;SDS011;31493;49.058;12.190;2023-08-24T00:50:55;10.27;;;2.95;;
23676;SDS011;31493;49.058;12.190;2023-08-24T00:53:25;9.85;;;3.45;;
23676;SDS011;31493;49.058;12.190;2023-08-24T00:55:53;5.85;;;2.97;;
23676;SDS011;31493;49.058;12.190;2023-08-24T00:58:20;5.95;;;2.92;;
23676;SDS011;31493;49.058;12.190;2023-08-24T01:00:48;5.95;;;2.85;;
23676;SDS011;31493;49.058;12.190;2023-08-24T01:05:44;9.88;;;3.65;;
23676;SDS011;31493;49.058;12.190;2023-08-24T01:08:12;5.82;;;2.92;;
23676;SDS011;31493;49.058;12.190;2023-08-24T01:13:11;8.98;;;3.50;;
23676;SDS011;31493;49.058;12.190;2023-08-24T01:15:47;12.43;;;3.33;;
23676;SDS011;31493;49.058;12.190;2023-08-24T01:18:22;3.80;;;2.97;;
23676;SDS011;31493;49.058;12.190;2023-08-24T01:20:52;4.03;;;3.13;;
23676;SDS011;31493;49.058;12.190;2023-08-24T01:23:26;6.43;;;3.03;;
23676;SDS011;31493;49.058;12.190;2023-08-24T01:26:03;6.13;;;3.30;;
23676;SDS011;31493;49.058;12.190;2023-08-24T01:28:33;8.65;;;2.95;;
23676;SDS011;31493;49.058;12.190;2023-08-24T01:31:00;9.82;;;3.40;;
23676;SDS011;31493;49.058;12.190;2023-08-24T01:33:27;6.53;;;3.15;;
23676;SDS011;31493;49.058;12.190;2023-08-24T01:35:54;10.43;;;3.30;;
23676;SDS011;31493;49.058;12.190;2023-08-24T01:38:21;8.65;;;3.20;;
23676;SDS011;31493;49.058;12.190;2023-08-24T01:40:52;12.35;;;3.60;;
23676;SDS011;31493;49.058;12.190;2023-08-24T01:43:26;10.82;;;3.47;;
23676;SDS011;31493;49.058;12.190;2023-08-24T01:45:59;7.13;;;3.22;;
23676;SDS011;31493;49.058;12.190;2023-08-24T01:48:29;10.23;;;3.45;;
23676;SDS011;31493;49.058;12.190;2023-08-24T01:50:57;5.68;;;3.10;;
23676;SDS011;31493;49.058;12.190;2023-08-24T01:53:26;5.75;;;3.22;;
23676;SDS011;31493;49.058;12.190;2023-08-24T01:58:21;7.85;;;3.42;;
23676;SDS011;31493;49.058;12.190;2023-08-24T02:00:49;10.15;;;3.45;;
23676;SDS011;31493;49.058;12.190;2023-08-24T02:03:16;5.72;;;3.30;;
23676;SDS011;31493;49.058;12.190;2023-08-24T02:05:43;6.53;;;3.10;;
23676;SDS011;31493;49.058;12.190;2023-08-24T02:08:10;9.43;;;3.70;;
23676;SDS011;31493;49.058;12.190;2023-08-24T02:10:37;7.50;;;3.17;;
23676;SDS011;31493;49.058;12.190;2023-08-24T02:13:04;8.95;;;3.63;;
23676;SDS011;31493;49.058;12.190;2023-08-24T02:15:32;12.82;;;3.20;;
23676;SDS011;31493;49.058;12.190;2023-08-24T02:18:00;10.32;;;3.10;;
23676;SDS011;31493;49.058;12.190;2023-08-24T02:20:27;5.35;;;3.17;;
23676;SDS011;31493;49.058;12.190;2023-08-24T02:22:54;4.38;;;3.17;;
23676;SDS011;31493;49.058;12.190;2023-08-24T02:25:21;6.85;;;3.40;;
23676;SDS011;31493;49.058;12.190;2023-08-24T02:27:48;6.47;;;3.47;;
23676;SDS011;31493;49.058;12.190;2023-08-24T02:30:15;4.22;;;3.30;;
23676;SDS011;31493;49.058;12.190;2023-08-24T02:32:42;5.82;;;3.40;;
23676;SDS011;31493;49.058;12.190;2023-08-24T02:35:10;6.90;;;3.50;;
23676;SDS011;31493;49.058;12.190;2023-08-24T02:37:37;8.13;;;4.15;;
23676;SDS011;31493;49.058;12.190;2023-08-24T02:40:05;9.32;;;3.58;;
23676;SDS011;31493;49.058;12.190;2023-08-24T02:42:34;7.60;;;3.60;;
23676;SDS011;31493;49.058;12.190;2023-08-24T02:45:02;7.15;;;3.90;;
23676;SDS011;31493;49.058;12.190;2023-08-24T02:47:29;6.70;;;3.97;;
23676;SDS011;31493;49.058;12.190;2023-08-24T02:49:56;6.63;;;4.10;;
23676;SDS011;31493;49.058;12.190;2023-08-24T02:52:25;5.03;;;3.55;;
23676;SDS011;31493;49.058;12.190;2023-08-24T02:54:52;8.88;;;4.35;;
23676;SDS011;31493;49.058;12.190;2023-08-24T02:57:19;7.20;;;3.88;;
23676;SDS011;31493;49.058;12.190;2023-08-24T02:59:46;8.23;;;4.20;;
23676;SDS011;31493;49.058;12.190;2023-08-24T03:02:13;6.55;;;4.10;;
23676;SDS011;31493;49.058;12.190;2023-08-24T03:04:40;7.43;;;4.63;;
23676;SDS011;31493;49.058;12.190;2023-08-24T03:07:07;10.93;;;4.40;;
23676;SDS011;31493;49.058;12.190;2023-08-24T03:09:37;7.30;;;4.10;;
23676;SDS011;31493;49.058;12.190;2023-08-24T03:12:04;8.15;;;4.60;;
23676;SDS011;31493;49.058;12.190;2023-08-24T03:14:31;7.75;;;4.35;;
23676;SDS011;31493;49.058;12.190;2023-08-24T03:16:58;7.30;;;4.30;;
23676;SDS011;31493;49.058;12.190;2023-08-24T03:19:25;9.30;;;4.45;;
23676;SDS011;31493;49.058;12.190;2023-08-24T03:21:52;7.45;;;4.50;;
23676;SDS011;31493;49.058;12.190;2023-08-24T03:24:20;5.47;;;4.35;;
23676;SDS011;31493;49.058;12.190;2023-08-24T03:26:48;7.50;;;4.32;;
23676;SDS011;31493;49.058;12.190;2023-08-24T03:29:15;6.55;;;4.63;;
23676;SDS011;31493;49.058;12.190;2023-08-24T03:31:42;12.30;;;4.68;;
23676;SDS011;31493;49.058;12.190;2023-08-24T03:34:09;6.90;;;4.63;;
23676;SDS011;31493;49.058;12.190;2023-08-24T03:36:36;6.40;;;4.50;;
23676;SDS011;31493;49.058;12.190;2023-08-24T03:39:03;10.10;;;4.93;;
23676;SDS011;31493;49.058;12.190;2023-08-24T03:41:30;7.07;;;4.68;;
23676;SDS011;31493;49.058;12.190;2023-08-24T03:44:00;9.25;;;4.85;;
23676;SDS011;31493;49.058;12.190;2023-08-24T03:46:28;6.88;;;5.05;;
23676;SDS011;31493;49.058;12.190;2023-08-24T03:48:55;7.18;;;4.82;;
23676;SDS011;31493;49.058;12.190;2023-08-24T03:51:22;9.68;;;4.85;;
23676;SDS011;31493;49.058;12.190;2023-08-24T03:53:49;9.43;;;4.63;;
23676;SDS011;31493;49.058;12.190;2023-08-24T03:56:16;9.60;;;5.18;;
23676;SDS011;31493;49.058;12.190;2023-08-24T03:58:43;8.38;;;5.22;;
23676;SDS011;31493;49.058;12.190;2023-08-24T04:01:11;10.70;;;4.90;;
23676;SDS011;31493;49.058;12.190;2023-08-24T04:03:38;7.72;;;4.50;;
23676;SDS011;31493;49.058;12.190;2023-08-24T04:06:05;9.48;;;5.07;;
23676;SDS011;31493;49.058;12.190;2023-08-24T04:08:33;10.50;;;4.60;;
23676;SDS011;31493;49.058;12.190;2023-08-24T04:11:00;10.85;;;5.05;;
23676;SDS011;31493;49.058;12.190;2023-08-24T04:13:27;8.90;;;4.80;;
23676;SDS011;31493;49.058;12.190;2023-08-24T04:15:54;9.77;;;4.53;;
23676;SDS011;31493;49.058;12.190;2023-08-24T04:18:23;8.80;;;4.70;;
23676;SDS011;31493;49.058;12.190;2023-08-24T04:20:51;7.53;;;4.40;;
23676;SDS011;31493;49.058;12.190;2023-08-24T04:23:23;11.07;;;4.43;;
23676;SDS011;31493;49.058;12.190;2023-08-24T04:25:50;9.15;;;4.95;;
23676;SDS011;31493;49.058;12.190;2023-08-24T04:28:17;7.07;;;4.88;;
23676;SDS011;31493;49.058;12.190;2023-08-24T04:30:48;9.43;;;4.90;;
23676;SDS011;31493;49.058;12.190;2023-08-24T04:33:16;8.18;;;4.85;;
23676;SDS011;31493;49.058;12.190;2023-08-24T04:35:46;12.93;;;5.03;;
23676;SDS011;31493;49.058;12.190;2023-08-24T04:38:13;9.93;;;5.07;;
23676;SDS011;31493;49.058;12.190;2023-08-24T04:40:48;11.65;;;5.20;;
23676;SDS011;31493;49.058;12.190;2023-08-24T04:43:16;9.98;;;5.03;;
23676;SDS011;31493;49.058;12.190;2023-08-24T04:45:45;12.43;;;5.43;;
23676;SDS011;31493;49.058;12.190;2023-08-24T04:50:41;6.07;;;4.78;;
23676;SDS011;31493;49.058;12.190;2023-08-24T04:53:11;10.15;;;4.43;;
23676;SDS011;31493;49.058;12.190;2023-08-24T04:55:39;6.47;;;4.53;;
23676;SDS011;31493;49.058;12.190;2023-08-24T04:58:06;9.18;;;4.82;;
23676;SDS011;31493;49.058;12.190;2023-08-24T05:00:34;7.10;;;4.60;;
23676;SDS011;31493;49.058;12.190;2023-08-24T05:03:01;4.90;;;4.40;;
23676;SDS011;31493;49.058;12.190;2023-08-24T05:05:28;9.55;;;4.68;;
23676;SDS011;31493;49.058;12.190;2023-08-24T05:07:56;9.07;;;4.75;;
23676;SDS011;31493;49.058;12.190;2023-08-24T05:10:25;7.25;;;5.05;;
23676;SDS011;31493;49.058;12.190;2023-08-24T05:12:52;5.55;;;5.05;;
23676;SDS011;31493;49.058;12.190;2023-08-24T05:15:19;6.57;;;5.32;;
23676;SDS011;31493;49.058;12.190;2023-08-24T05:17:46;6.55;;;4.70;;
23676;SDS011;31493;49.058;12.190;2023-08-24T05:20:13;8.55;;;5.40;;
23676;SDS011;31493;49.058;12.190;2023-08-24T05:22:41;7.70;;;5.30;;
23676;SDS011;31493;49.058;12.190;2023-08-24T05:25:08;11.77;;;5.55;;
23676;SDS011;31493;49.058;12.190;2023-08-24T05:27:37;9.18;;;5.40;;
23676;SDS011;31493;49.058;12.190;2023-08-24T05:30:04;9.68;;;5.82;;
23676;SDS011;31493;49.058;12.190;2023-08-24T05:32:32;8.05;;;5.45;;
23676;SDS011;31493;49.058;12.190;2023-08-24T05:35:01;9.68;;;5.65;;
23676;SDS011;31493;49.058;12.190;2023-08-24T05:37:28;9.38;;;5.63;;
23676;SDS011;31493;49.058;12.190;2023-08-24T05:39:55;9.10;;;5.38;;
23676;SDS011;31493;49.058;12.190;2023-08-24T05:42:22;10.60;;;5.60;;
23676;SDS011;31493;49.058;12.190;2023-08-24T05:44:50;9.70;;;5.63;;
23676;SDS011;31493;49.058;12.190;2023-08-24T05:47:18;7.72;;;5.78;;
23676;SDS011;31493;49.058;12.190;2023-08-24T05:49:45;8.68;;;5.60;;
23676;SDS011;31493;49.058;12.190;2023-08-24T05:52:12;14.10;;;5.88;;
23676;SDS011;31493;49.058;12.190;2023-08-24T05:54:39;6.15;;;5.15;;
23676;SDS011;31493;49.058;12.190;2023-08-24T05:57:06;8.77;;;5.20;;
23676;SDS011;31493;49.058;12.190;2023-08-24T05:59:33;7.20;;;5.03;;
23676;SDS011;31493;49.058;12.190;2023-08-24T06:02:01;9.82;;;5.38;;
23676;SDS011;31493;49.058;12.190;2023-08-24T06:04:29;11.63;;;5.30;;
23676;SDS011;31493;49.058;12.190;2023-08-24T06:06:57;6.72;;;5.00;;
23676;SDS011;31493;49.058;12.190;2023-08-24T06:09:24;7.85;;;5.88;;
23676;SDS011;31493;49.058;12.190;2023-08-24T06:11:51;9.38;;;5.38;;
23676;SDS011;31493;49.058;12.190;2023-08-24T06:14:18;7.63;;;5.00;;
23676;SDS011;31493;49.058;12.190;2023-08-24T06:16:45;9.90;;;5.45;;
23676;SDS011;31493;49.058;12.190;2023-08-24T06:19:15;7.43;;;5.57;;
23676;SDS011;31493;49.058;12.190;2023-08-24T06:21:42;9.80;;;5.28;;
23676;SDS011;31493;49.058;12.190;2023-08-24T06:24:09;7.10;;;5.28;;
23676;SDS011;31493;49.058;12.190;2023-08-24T06:26:36;9.70;;;5.50;;
23676;SDS011;31493;49.058;12.190;2023-08-24T06:29:03;8.05;;;5.40;;
23676;SDS011;31493;49.058;12.190;2023-08-24T06:31:30;6.38;;;5.38;;
23676;SDS011;31493;49.058;12.190;2023-08-24T06:34:00;7.68;;;5.38;;
23676;SDS011;31493;49.058;12.190;2023-08-24T06:36:28;8.13;;;5.25;;
23676;SDS011;31493;49.058;12.190;2023-08-24T06:38:55;7.07;;;5.00;;
23676;SDS011;31493;49.058;12.190;2023-08-24T06:41:23;10.73;;;5.20;;
23676;SDS011;31493;49.058;12.190;2023-08-24T06:43:50;7.95;;;5.13;;
23676;SDS011;31493;49.058;12.190;2023-08-24T06:46:19;15.02;;;4.95;;
23676;SDS011;31493;49.058;12.190;2023-08-24T06:48:47;10.27;;;5.20;;
23676;SDS011;31493;49.058;12.190;2023-08-24T06:51:14;13.75;;;5.20;;
23676;SDS011;31493;49.058;12.190;2023-08-24T06:53:43;8.85;;;5.35;;
23676;SDS011;31493;49.058;12.190;2023-08-24T06:56:14;8.80;;;4.93;;
23676;SDS011;31493;49.058;12.190;2023-08-24T07:01:10;6.43;;;5.10;;
23676;SDS011;31493;49.058;12.190;2023-08-24T07:03:37;10.00;;;4.75;;
23676;SDS011;31493;49.058;12.190;2023-08-24T07:06:05;10.55;;;5.00;;
23676;SDS011;31493;49.058;12.190;2023-08-24T07:08:35;8.03;;;4.83;;
23676;SDS011;31493;49.058;12.190;2023-08-24T07:11:04;10.63;;;5.22;;
23676;SDS011;31493;49.058;12.190;2023-08-24T07:13:31;12.15;;;5.00;;
23676;SDS011;31493;49.058;12.190;2023-08-24T07:15:59;8.73;;;5.10;;
23676;SDS011;31493;49.058;12.190;2023-08-24T07:20:55;11.30;;;4.78;;
23676;SDS011;31493;49.058;12.190;2023-08-24T07:23:22;7.50;;;4.72;;
23676;SDS011;31493;49.058;12.190;2023-08-24T07:25:49;5.57;;;4.45;;
23676;SDS011;31493;49.058;12.190;2023-08-24T07:28:18;11.50;;;5.30;;
23676;SDS011;31493;49.058;12.190;2023-08-24T07:30:48;7.88;;;4.55;;
23676;SDS011;31493;49.058;12.190;2023-08-24T07:33:15;6.53;;;4.55;;
23676;SDS011;31493;49.058;12.190;2023-08-24T07:35:42;8.02;;;4.13;;
23676;SDS011;31493;49.058;12.190;2023-08-24T07:38:09;7.78;;;4.40;;
23676;SDS011;31493;49.058;12.190;2023-08-24T07:40:36;7.32;;;4.18;;
23676;SDS011;31493;49.058;12.190;2023-08-24T07:43:03;8.35;;;3.85;;
23676;SDS011;31493;49.058;12.190;2023-08-24T07:45:31;8.30;;;3.63;;
23676;SDS011;31493;49.058;12.190;2023-08-24T07:47:59;7.10;;;3.20;;
23676;SDS011;31493;49.058;12.190;2023-08-24T07:50:26;6.00;;;3.20;;
23676;SDS011;31493;49.058;12.190;2023-08-24T07:52:53;3.95;;;2.75;;
23676;SDS011;31493;49.058;12.190;2023-08-24T07:55:20;9.70;;;2.58;;
23676;SDS011;31493;49.058;12.190;2023-08-24T07:57:47;4.97;;;3.10;;
23676;SDS011;31493;49.058;12.190;2023-08-24T08:00:14;6.78;;;3.13;;
23676;SDS011;31493;49.058;12.190;2023-08-24T08:02:43;6.95;;;2.50;;
23676;SDS011;31493;49.058;12.190;2023-08-24T08:05:10;5.38;;;2.67;;
23676;SDS011;31493;49.058;12.190;2023-08-24T08:07:38;5.13;;;2.50;;
23676;SDS011;31493;49.058;12.190;2023-08-24T08:10:05;5.05;;;2.58;;
23676;SDS011;31493;49.058;12.190;2023-08-24T08:12:33;8.73;;;2.65;;
23676;SDS011;31493;49.058;12.190;2023-08-24T08:15:00;4.63;;;2.40;;
23676;SDS011;31493;49.058;12.190;2023-08-24T08:17:27;6.22;;;2.92;;
23676;SDS011;31493;49.058;12.190;2023-08-24T08:19:57;5.40;;;2.33;;
23676;SDS011;31493;49.058;12.190;2023-08-24T08:22:24;6.35;;;2.78;;
23676;SDS011;31493;49.058;12.190;2023-08-24T08:24:51;7.00;;;2.70;;
23676;SDS011;31493;49.058;12.190;2023-08-24T08:27:19;4.28;;;2.80;;
23676;SDS011;31493;49.058;12.190;2023-08-24T08:29:47;7.38;;;2.88;;
23676;SDS011;31493;49.058;12.190;2023-08-24T08:32:14;4.45;;;2.50;;
23676;SDS011;31493;49.058;12.190;2023-08-24T08:34:41;5.53;;;2.65;;
23676;SDS011;31493;49.058;12.190;2023-08-24T08:37:09;3.50;;;2.92;;
23676;SDS011;31493;49.058;12.190;2023-08-24T08:39:36;5.63;;;2.83;;
23676;SDS011;31493;49.058;12.190;2023-08-24T08:42:03;6.60;;;2.58;;
23676;SDS011;31493;49.058;12.190;2023-08-24T08:44:31;7.90;;;2.63;;
23676;SDS011;31493;49.058;12.190;2023-08-24T08:46:59;7.07;;;2.90;;
23676;SDS011;31493;49.058;12.190;2023-08-24T08:49:26;6.93;;;2.70;;
23676;SDS011;31493;49.058;12.190;2023-08-24T08:51:53;6.55;;;2.53;;
23676;SDS011;31493;49.058;12.190;2023-08-24T08:54:21;6.15;;;2.67;;
23676;SDS011;31493;49.058;12.190;2023-08-24T08:56:48;4.22;;;2.60;;
23676;SDS011;31493;49.058;12.190;2023-08-24T08:59:16;3.55;;;2.25;;
23676;SDS011;31493;49.058;12.190;2023-08-24T09:01:44;6.90;;;2.88;;
23676;SDS011;31493;49.058;12.190;2023-08-24T09:04:13;6.57;;;2.90;;
23676;SDS011;31493;49.058;12.190;2023-08-24T09:06:40;4.68;;;2.80;;
23676;SDS011;31493;49.058;12.190;2023-08-24T09:09:07;6.38;;;2.83;;
23676;SDS011;31493;49.058;12.190;2023-08-24T09:11:36;4.28;;;2.60;;
23676;SDS011;31493;49.058;12.190;2023-08-24T09:14:04;3.33;;;2.17;;
23676;SDS011;31493;49.058;12.190;2023-08-24T09:16:31;5.68;;;2.53;;
23676;SDS011;31493;49.058;12.190;2023-08-24T09:18:59;5.97;;;2.42;;
23676;SDS011;31493;49.058;12.190;2023-08-24T09:21:27;7.85;;;2.90;;
23676;SDS011;31493;49.058;12.190;2023-08-24T09:23:54;8.15;;;2.80;;
23676;SDS011;31493;49.058;12.190;2023-08-24T09:26:27;5.90;;;2.70;;
23676;SDS011;31493;49.058;12.190;2023-08-24T09:28:56;5.70;;;2.85;;
23676;SDS011;31493;49.058;12.190;2023-08-24T09:33:51;7.05;;;2.75;;
23676;SDS011;31493;49.058;12.190;2023-08-24T09:36:26;6.13;;;2.75;;
23676;SDS011;31493;49.058;12.190;2023-08-24T09:38:53;7.88;;;2.60;;
23676;SDS011;31493;49.058;12.190;2023-08-24T09:41:22;4.07;;;2.50;;
23676;SDS011;31493;49.058;12.190;2023-08-24T09:43:49;10.40;;;2.80;;
23676;SDS011;31493;49.058;12.190;2023-08-24T09:46:19;4.28;;;2.90;;
23676;SDS011;31493;49.058;12.190;2023-08-24T09:48:52;8.00;;;3.00;;
23676;SDS011;31493;49.058;12.190;2023-08-24T09:51:20;5.72;;;3.00;;
23676;SDS011;31493;49.058;12.190;2023-08-24T09:53:48;6.33;;;2.60;;
23676;SDS011;31493;49.058;12.190;2023-08-24T09:56:15;7.32;;;2.47;;
23676;SDS011;31493;49.058;12.190;2023-08-24T09:58:42;4.53;;;2.60;;
23676;SDS011;31493;49.058;12.190;2023-08-24T10:01:12;4.60;;;2.40;;
23676;SDS011;31493;49.058;12.190;2023-08-24T10:03:42;6.15;;;2.97;;
23676;SDS011;31493;49.058;12.190;2023-08-24T10:06:11;4.22;;;2.70;;
23676;SDS011;31493;49.058;12.190;2023-08-24T10:08:42;4.35;;;2.67;;
23676;SDS011;31493;49.058;12.190;2023-08-24T10:11:13;5.55;;;2.53;;
23676;SDS011;31493;49.058;12.190;2023-08-24T10:13:47;4.25;;;2.72;;
23676;SDS011;31493;49.058;12.190;2023-08-24T10:16:19;7.65;;;3.03;;
23676;SDS011;31493;49.058;12.190;2023-08-24T10:18:49;3.88;;;2.50;;
23676;SDS011;31493;49.058;12.190;2023-08-24T10:21:18;3.67;;;2.75;;
23676;SDS011;31493;49.058;12.190;2023-08-24T10:23:46;5.10;;;2.53;;
23676;SDS011;31493;49.058;12.190;2023-08-24T10:26:13;9.18;;;3.40;;
23676;SDS011;31493;49.058;12.190;2023-08-24T10:28:42;6.72;;;3.00;;
23676;SDS011;31493;49.058;12.190;2023-08-24T10:31:10;5.13;;;2.53;;
23676;SDS011;31493;49.058;12.190;2023-08-24T10:33:38;8.32;;;2.88;;
23676;SDS011;31493;49.058;12.190;2023-08-24T10:36:07;5.15;;;2.80;;
23676;SDS011;31493;49.058;12.190;2023-08-24T10:41:06;4.07;;;2.70;;
23676;SDS011;31493;49.058;12.190;2023-08-24T10:43:34;6.50;;;3.08;;
23676;SDS011;31493;49.058;12.190;2023-08-24T10:46:01;9.77;;;3.00;;
23676;SDS011;31493;49.058;12.190;2023-08-24T10:48:45;5.45;;;2.80;;
23676;SDS011;31493;49.058;12.190;2023-08-24T10:51:28;4.95;;;2.60;;
23676;SDS011;31493;49.058;12.190;2023-08-24T10:53:57;7.65;;;3.25;;
23676;SDS011;31493;49.058;12.190;2023-08-24T10:56:34;6.07;;;2.85;;
23676;SDS011;31493;49.058;12.190;2023-08-24T10:59:10;5.82;;;2.70;;
23676;SDS011;31493;49.058;12.190;2023-08-24T11:01:39;5.72;;;3.00;;
23676;SDS011;31493;49.058;12.190;2023-08-24T11:04:07;6.68;;;2.70;;
23676;SDS011;31493;49.058;12.190;2023-08-24T11:06:50;6.45;;;2.63;;
23676;SDS011;31493;49.058;12.190;2023-08-24T11:09:18;5.90;;;3.13;;
23676;SDS011;31493;49.058;12.190;2023-08-24T11:11:55;8.85;;;2.92;;
23676;SDS011;31493;49.058;12.190;2023-08-24T11:14:23;7.15;;;2.75;;
23676;SDS011;31493;49.058;12.190;2023-08-24T11:19:19;7.28;;;3.05;;
23676;SDS011;31493;49.058;12.190;2023-08-24T11:21:47;7.07;;;3.10;;
23676;SDS011;31493;49.058;12.190;2023-08-24T11:24:15;6.13;;;2.90;;
23676;SDS011;31493;49.058;12.190;2023-08-24T11:26:43;7.95;;;2.88;;
23676;SDS011;31493;49.058;12.190;2023-08-24T11:29:11;5.97;;;2.78;;
23676;SDS011;31493;49.058;12.190;2023-08-24T11:31:38;10.23;;;3.25;;
23676;SDS011;31493;49.058;12.190;2023-08-24T11:34:06;6.35;;;2.90;;
23676;SDS011;31493;49.058;12.190;2023-08-24T11:36:43;6.47;;;3.40;;
23676;SDS011;31493;49.058;12.190;2023-08-24T11:39:17;6.20;;;3.08;;
23676;SDS011;31493;49.058;12.190;2023-08-24T11:41:56;7.97;;;2.60;;
23676;SDS011;31493;49.058;12.190;2023-08-24T11:44:24;5.93;;;2.97;;
23676;SDS011;31493;49.058;12.190;2023-08-24T11:46:51;6.82;;;3.00;;
23676;SDS011;31493;49.058;12.190;2023-08-24T11:49:18;6.97;;;3.17;;
23676;SDS011;31493;49.058;12.190;2023-08-24T11:51:45;5.38;;;3.08;;
23676;SDS011;31493;49.058;12.190;2023-08-24T11:54:18;7.00;;;3.50;;
23676;SDS011;31493;49.058;12.190;2023-08-24T11:56:46;7.70;;;3.22;;
23676;SDS011;31493;49.058;12.190;2023-08-24T11:59:13;5.28;;;2.92;;
23676;SDS011;31493;49.058;12.190;2023-08-24T12:01:41;8.52;;;2.70;;
23676;SDS011;31493;49.058;12.190;2023-08-24T12:04:09;4.95;;;2.80;;
23676;SDS011;31493;49.058;12.190;2023-08-24T12:06:36;6.03;;;2.92;;
23676;SDS011;31493;49.058;12.190;2023-08-24T12:09:04;6.97;;;3.33;;
23676;SDS011;31493;49.058;12.190;2023-08-24T12:11:36;8.27;;;3.20;;
23676;SDS011;31493;49.058;12.190;2023-08-24T12:14:04;6.50;;;2.90;;
23676;SDS011;31493;49.058;12.190;2023-08-24T12:16:35;5.97;;;3.08;;
23676;SDS011;31493;49.058;12.190;2023-08-24T12:19:06;6.90;;;3.00;;
23676;SDS011;31493;49.058;12.190;2023-08-24T12:21:34;4.03;;;2.75;;
23676;SDS011;31493;49.058;12.190;2023-08-24T12:24:02;7.75;;;2.88;;
23676;SDS011;31493;49.058;12.190;2023-08-24T12:26:31;7.65;;;2.85;;
23676;SDS011;31493;49.058;12.190;2023-08-24T12:29:03;7.22;;;3.30;;
23676;SDS011;31493;49.058;12.190;2023-08-24T12:31:31;6.32;;;3.05;;
23676;SDS011;31493;49.058;12.190;2023-08-24T12:33:59;5.38;;;2.60;;
23676;SDS011;31493;49.058;12.190;2023-08-24T12:36:27;8.90;;;3.00;;
23676;SDS011;31493;49.058;12.190;2023-08-24T12:38:54;9.45;;;3.00;;
23676;SDS011;31493;49.058;12.190;2023-08-24T12:41:21;5.88;;;2.90;;
23676;SDS011;31493;49.058;12.190;2023-08-24T12:43:49;8.65;;;3.30;;
23676;SDS011;31493;49.058;12.190;2023-08-24T12:46:18;5.45;;;3.05;;
23676;SDS011;31493;49.058;12.190;2023-08-24T12:48:45;5.05;;;3.17;;
23676;SDS011;31493;49.058;12.190;2023-08-24T12:51:12;7.88;;;2.90;;
23676;SDS011;31493;49.058;12.190;2023-08-24T12:53:39;5.63;;;2.60;;
23676;SDS011;31493;49.058;12.190;2023-08-24T12:56:06;7.72;;;3.00;;
23676;SDS011;31493;49.058;12.190;2023-08-24T12:58:33;8.55;;;2.50;;
23676;SDS011;31493;49.058;12.190;2023-08-24T13:01:00;5.80;;;3.22;;
23676;SDS011;31493;49.058;12.190;2023-08-24T13:03:29;5.68;;;2.90;;
23676;SDS011;31493;49.058;12.190;2023-08-24T13:05:56;6.72;;;3.20;;
23676;SDS011;31493;49.058;12.190;2023-08-24T13:08:24;7.72;;;3.20;;
23676;SDS011;31493;49.058;12.190;2023-08-24T13:10:51;7.55;;;2.80;;
23676;SDS011;31493;49.058;12.190;2023-08-24T13:13:19;7.70;;;2.97;;
23676;SDS011;31493;49.058;12.190;2023-08-24T13:15:47;6.45;;;3.05;;
23676;SDS011;31493;49.058;12.190;2023-08-24T13:18:15;9.55;;;3.20;;
23676;SDS011;31493;49.058;12.190;2023-08-24T13:20:44;11.50;;;2.67;;
23676;SDS011;31493;49.058;12.190;2023-08-24T13:23:13;6.82;;;2.88;;
23676;SDS011;31493;49.058;12.190;2023-08-24T13:25:40;8.57;;;3.08;;
23676;SDS011;31493;49.058;12.190;2023-08-24T13:28:07;7.90;;;3.20;;
23676;SDS011;31493;49.058;12.190;2023-08-24T13:30:34;6.78;;;2.97;;
23676;SDS011;31493;49.058;12.190;2023-08-24T13:33:01;8.07;;;2.97;;
23676;SDS011;31493;49.058;12.190;2023-08-24T13:35:28;6.88;;;3.22;;
23676;SDS011;31493;49.058;12.190;2023-08-24T13:37:57;7.40;;;2.92;;
23676;SDS011;31493;49.058;12.190;2023-08-24T13:40:24;7.13;;;3.30;;
23676;SDS011;31493;49.058;12.190;2023-08-24T13:42:51;5.03;;;2.72;;
23676;SDS011;31493;49.058;12.190;2023-08-24T13:45:18;10.85;;;3.20;;
23676;SDS011;31493;49.058;12.190;2023-08-24T13:47:46;5.55;;;2.63;;
23676;SDS011;31493;49.058;12.190;2023-08-24T13:50:13;5.22;;;2.95;;
23676;SDS011;31493;49.058;12.190;2023-08-24T13:52:40;6.78;;;3.10;;
23676;SDS011;31493;49.058;12.190;2023-08-24T13:55:08;4.85;;;3.10;;
23676;SDS011;31493;49.058;12.190;2023-08-24T13:57:36;5.03;;;2.88;;
23676;SDS011;31493;49.058;12.190;2023-08-24T14:00:03;8.02;;;2.80;;
23676;SDS011;31493;49.058;12.190;2023-08-24T14:02:33;7.80;;;3.17;;
23676;SDS011;31493;49.058;12.190;2023-08-24T14:05:00;7.15;;;3.20;;
23676;SDS011;31493;49.058;12.190;2023-08-24T14:07:27;5.13;;;3.13;;
23676;SDS011;31493;49.058;12.190;2023-08-24T14:09:54;8.57;;;3.35;;
23676;SDS011;31493;49.058;12.190;2023-08-24T14:12:23;12.10;;;3.53;;
23676;SDS011;31493;49.058;12.190;2023-08-24T14:14:50;5.40;;;2.97;;
23676;SDS011;31493;49.058;12.190;2023-08-24T14:17:17;6.70;;;3.13;;
23676;SDS011;31493;49.058;12.190;2023-08-24T14:19:44;9.30;;;3.20;;
23676;SDS011;31493;49.058;12.190;2023-08-24T14:22:11;7.50;;;3.63;;
23676;SDS011;31493;49.058;12.190;2023-08-24T14:24:38;9.57;;;3.60;;
23676;SDS011;31493;49.058;12.190;2023-08-24T14:27:05;8.52;;;3.72;;
23676;SDS011;31493;49.058;12.190;2023-08-24T14:29:33;5.57;;;3.33;;
23676;SDS011;31493;49.058;12.190;2023-08-24T14:32:00;7.43;;;3.60;;
23676;SDS011;31493;49.058;12.190;2023-08-24T14:34:28;7.47;;;3.70;;
23676;SDS011;31493;49.058;12.190;2023-08-24T14:36:55;9.00;;;3.65;;
23676;SDS011;31493;49.058;12.190;2023-08-24T14:39:22;7.45;;;3.47;;
23676;SDS011;31493;49.058;12.190;2023-08-24T14:41:49;6.93;;;3.33;;
23676;SDS011;31493;49.058;12.190;2023-08-24T14:44:16;7.07;;;3.53;;
23676;SDS011;31493;49.058;12.190;2023-08-24T14:46:44;6.88;;;3.33;;
23676;SDS011;31493;49.058;12.190;2023-08-24T14:51:43;8.10;;;3.35;;
23676;SDS011;31493;49.058;12.190;2023-08-24T14:54:10;11.88;;;3.80;;
23676;SDS011;31493;49.058;12.190;2023-08-24T14:56:39;10.15;;;3.60;;
23676;SDS011;31493;49.058;12.190;2023-08-24T14:59:07;11.98;;;3.70;;
23676;SDS011;31493;49.058;12.190;2023-08-24T15:01:34;6.63;;;3.53;;
23676;SDS011;31493;49.058;12.190;2023-08-24T15:04:02;11.75;;;3.65;;